• Join FlightAware (Why Join?)
  • Login
  • US Flag 
09:07PM EDT


 

Airport Tracker/Info


-or-


 

Live Flight TrackerFlight Track Log ✈ UAL252 ✈ 14-Jun-2013 ✈ KBWI - KIAH

Flight Track Log - Related Links

Times and Time Zones

All times are in EDT time to prevent confusion due to time zone crossing. See the UAL252 flight status page for this flight to view local times or setup timezone preferences in your user account.

Time Position Orientation Groundspeed Altitude Reporting Facility
EDT Latitude Longitude Course Direction KTS MPH feet Rate Location/Type
06:02PM 39.1833 -76.8333 270° West 228 262 5,400  Level Potomac TRACON
06:03PM 39.2000 -77.0967 270° West  Level FlightAware Approximate
06:03PM 39.2000 -76.9333 282° West 259 298 8,100  Level Potomac TRACON
06:04PM 39.1395 -77.2008 211° Southwest  Level FlightAware Approximate
06:04PM 39.2000 -77.0333 270° West 289 333 10,700  Level Potomac TRACON
06:05PM 39.0423 -77.2764 211° Southwest  Level FlightAware Approximate
06:05PM 39.2000 -77.1500 270° West 355 409 12,300  Level Potomac TRACON
06:06PM 38.9459 -77.3528 207° Southwest  Level FlightAware Approximate
06:06PM 39.1167 -77.2333 218° Southwest 387 445 14,800  Level Potomac TRACON
06:07PM 39.0167 -77.3167 213° Southwest 402 463 17,000 1,920 Climbing Potomac TRACON
06:09PM 38.8072 -77.4564 207° Southwest 436 502 20,800 1,680 Climbing Washington Center
06:10PM 38.7017 -77.5336 210° Southwest 431 496 22,300 1,500 Climbing Washington Center
06:11PM 38.6064 -77.6294 218° Southwest 438 504 23,900 1,500 Climbing Washington Center
06:12PM 38.5108 -77.7328 220° Southwest 449 517 25,300 1,500 Climbing Washington Center
06:13PM 38.4375 -77.8606 234° Southwest 442 509 26,900 1,620 Climbing Washington Center
06:14PM 38.3703 -77.9911 237° Southwest 447 514 28,600 1,380 Climbing Washington Center
06:15PM 38.3008 -78.1239 236° Southwest 453 521 29,700 1,260 Climbing Washington Center
06:16PM 38.2292 -78.2589 236° Southwest 460 529 31,200 1,080 Climbing Washington Center
06:17PM 38.1572 -78.3936 236° Southwest 465 535 31,900 480 Climbing Washington Center
06:18PM 38.1086 -78.5078 242° Southwest 465 535 32,200 600 Climbing Washington Center
06:19PM 38.0567 -78.6642 247° West 452 520 33,100 840 Climbing Washington Center
06:20PM 38.0069 -78.8122 247° West 452 520 34,000 420 Climbing Washington Center
06:21PM 37.9525 -78.9706 246° West 457 526 34,000  Level Washington Center
06:22PM 37.8961 -79.1206 245° Southwest 462 532 34,000  Level Washington Center
06:23PM 37.8294 -79.2622 239° Southwest 462 532 34,000  Level Washington Center
06:24PM 37.7669 -79.3878 238° Southwest 473 544 34,000  Level Washington Center
06:25PM 37.6892 -79.5361 237° Southwest 473 544 34,000  Level Washington Center
06:26PM 37.6289 -79.6589 238° Southwest 468 539 34,000  Level Washington Center
06:27PM 37.5528 -79.8067 237° Southwest 463 533 34,000  Level Washington Center
06:28PM 37.4897 -79.9342 238° Southwest 469 540 34,000  Level Washington Center
06:29PM 37.4200 -80.0689 237° Southwest 469 540 34,000  Level Washington Center
06:30PM 37.3397 -80.2228 237° Southwest 475 547 34,000  Level Atlanta Center
06:31PM 37.2708 -80.3592 238° Southwest 475 547 34,000  Level Atlanta Center
06:32PM 37.2017 -80.4900 236° Southwest 470 541 34,000  Level Atlanta Center
06:33PM 37.1306 -80.6258 237° Southwest 470 541 34,000  Level Atlanta Center
06:34PM 37.0639 -80.7744 241° Southwest 470 541 34,000  Level Atlanta Center
06:35PM 37.0133 -80.9144 246° West 452 520 34,000  Level Atlanta Center
06:36PM 36.9644 -81.0514 246° West 437 503 34,000  Level Atlanta Center
06:37PM 36.9194 -81.1778 246° West 437 503 34,000  Level Atlanta Center
06:38PM 36.8706 -81.3144 246° West 432 497 34,000  Level Atlanta Center
06:39PM 36.8214 -81.4508 246° West 432 497 34,000  Level Atlanta Center
06:40PM 36.7761 -81.5844 247° West 426 490 34,000  Level Atlanta Center
06:41PM 36.7247 -81.7258 246° West 431 496 34,000  Level Atlanta Center
06:42PM 36.6731 -81.8647 245° Southwest 436 502 34,000  Level Atlanta Center
06:43PM 36.6192 -82.0136 246° West 441 507 34,000  Level Atlanta Center
06:44PM 36.5653 -82.1519 244° Southwest 441 507 34,000  Level Atlanta Center
06:45PM 36.5150 -82.2875 245° Southwest 446 513 34,000  Level Atlanta Center
06:46PM 36.4628 -82.4253 245° Southwest 446 513 34,000  Level Atlanta Center
06:47PM 36.4122 -82.5656 246° West 446 513 34,000  Level Atlanta Center
06:48PM 36.3575 -82.7058 244° Southwest 446 513 34,000  Level Atlanta Center
06:49PM 36.3069 -82.8406 245° Southwest 446 513 34,000  Level Atlanta Center
06:50PM 36.2561 -82.9806 246° West 446 513 34,000  Level Atlanta Center
06:51PM 36.2028 -83.1175 244° Southwest 446 513 34,000  Level Atlanta Center
06:52PM 36.1497 -83.2544 244° Southwest 446 513 34,000  Level Atlanta Center
06:53PM 36.0961 -83.3936 245° Southwest 446 513 34,000  Level Atlanta Center
06:54PM 36.0447 -83.5303 245° Southwest 446 513 34,000  Level Atlanta Center
06:55PM 35.9911 -83.6717 245° Southwest 446 513 34,000  Level Atlanta Center
06:56PM 35.9433 -83.7925 244° Southwest 446 513 34,000  Level Atlanta Center
06:57PM 35.8808 -83.9261 240° Southwest 446 513 34,000  Level Atlanta Center
06:58PM 35.7956 -84.0489 229° Southwest 464 534 34,000  Level Atlanta Center
06:59PM 35.7078 -84.1692 228° Southwest 475 547 34,000  Level Atlanta Center
07:00PM 35.6219 -84.2867 228° Southwest 475 547 34,000  Level Atlanta Center
07:01PM 35.5361 -84.4064 229° Southwest 475 547 34,000  Level Atlanta Center
07:02PM 35.4503 -84.5283 229° Southwest 475 547 34,000  Level Atlanta Center
07:03PM 35.3622 -84.6475 228° Southwest 475 547 34,000  Level Atlanta Center
07:04PM 35.2758 -84.7664 228° Southwest 475 547 34,000  Level Atlanta Center
07:05PM 35.1917 -84.8850 229° Southwest 475 547 34,000 60 Level Atlanta Center
07:06PM 35.1053 -85.0011 228° Southwest 469 540 34,200 480 Climbing Atlanta Center
07:07PM 35.0189 -85.1192 228° Southwest 469 540 35,000 900 Climbing Atlanta Center
07:08PM 34.9342 -85.2347 228° Southwest 463 533 36,000 480 Climbing Atlanta Center
07:09PM 34.8475 -85.3497 227° Southwest 463 533 36,000  Level Atlanta Center
07:10PM 34.7650 -85.4622 228° Southwest 463 533 36,000  Level Atlanta Center
07:11PM 34.6781 -85.5744 227° Southwest 463 533 36,000  Level Atlanta Center
07:12PM 34.5950 -85.6892 229° Southwest 463 533 36,000  Level Atlanta Center
07:13PM 34.5081 -85.8033 227° Southwest 463 533 36,000  Level Atlanta Center
07:14PM 34.4144 -85.9247 227° Southwest 458 527 36,000  Level Atlanta Center
07:15PM 34.3292 -86.0386 228° Southwest 464 534 36,100  Climbing Atlanta Center
07:16PM 34.2436 -86.1497 227° Southwest 464 534 36,000 -60 Descending Atlanta Center
07:17PM 34.1583 -86.2606 227° Southwest 464 534 36,000  Level Atlanta Center
07:18PM 34.0750 -86.3686 227° Southwest 464 534 36,000 -60 Level Atlanta Center
07:19PM 34.0019 -86.4694 229° Southwest 459 528 35,900  Descending Atlanta Center
07:20PM 33.9142 -86.5794 226° Southwest 459 528 36,000  Climbing Atlanta Center
07:21PM 33.8261 -86.6919 227° Southwest 459 528 36,000  Level Atlanta Center
07:22PM 33.7403 -86.8042 227° Southwest 459 528 36,000  Level Atlanta Center
07:23PM 33.6625 -86.9214 231° Southwest 464 534 36,000  Level Atlanta Center
07:24PM 33.6072 -87.0494 243° Southwest 452 520 36,100  Climbing Atlanta Center
07:25PM 33.5539 -87.1819 244° Southwest 447 514 36,000 -60 Descending Atlanta Center
07:26PM 33.5025 -87.3122 245° Southwest 441 507 36,000 -60 Level Atlanta Center
07:27PM 33.4400 -87.4694 245° Southwest 435 501 35,900  Descending Memphis Center
07:28PM 33.3864 -87.6006 244° Southwest 435 501 36,000  Climbing Memphis Center
07:29PM 33.3331 -87.7292 244° Southwest 435 501 36,000  Level Memphis Center
07:30PM 33.2814 -87.8575 244° Southwest 435 501 36,000  Level Memphis Center
07:31PM 33.2294 -87.9856 244° Southwest 430 495 36,000  Level Memphis Center
07:32PM 33.1756 -88.1161 244° Southwest 430 495 36,000  Level Memphis Center
07:33PM 33.1256 -88.2439 245° Southwest 430 495 36,000  Level Memphis Center
07:34PM 33.0756 -88.3739 245° Southwest 430 495 36,000  Level Memphis Center
07:35PM 33.0211 -88.5014 243° Southwest 430 495 36,000  Level Memphis Center
07:36PM 32.9667 -88.6314 244° Southwest 430 495 36,000  Level Memphis Center
07:37PM 32.9142 -88.7586 244° Southwest 430 495 36,000  Level Memphis Center
07:38PM 32.8572 -88.8908 243° Southwest 430 495 36,000  Level Memphis Center
07:39PM 32.8025 -89.0153 242° Southwest 430 495 36,000  Level Memphis Center
07:40PM 32.7494 -89.1444 244° Southwest 430 495 36,000  Level Memphis Center
07:41PM 32.6942 -89.2736 243° Southwest 430 495 36,000  Level Memphis Center
07:42PM 32.6389 -89.4025 243° Southwest 430 495 36,000  Level Memphis Center
07:43PM 32.5836 -89.5289 243° Southwest 430 495 36,000  Level Memphis Center
07:44PM 32.5342 -89.6625 246° West 430 495 36,000  Level Memphis Center
07:45PM 32.4889 -89.7958 248° West 435 501 36,000  Level Memphis Center
07:46PM 32.4436 -89.9289 248° West 440 506 36,000  Level Memphis Center
07:47PM 32.3981 -90.0619 248° West 440 506 36,000  Level Memphis Center
07:48PM 32.3503 -90.1950 247° West 440 506 36,000  Level Memphis Center
07:49PM 32.3025 -90.3253 247° West 440 506 36,000  Level Memphis Center
07:50PM 32.2544 -90.4556 246° West 440 506 36,000  Level Memphis Center
07:51PM 32.2061 -90.5881 247° West 440 506 36,000 -60 Level Memphis Center
07:52PM 32.1731 -90.6975 250° West 436 502 35,900  Descending Houston Center
07:53PM 32.1364 -90.8114 249° West 436 502 36,000  Climbing Houston Center
07:54PM 32.0856 -90.9719 250° West 438 504 36,000  Level Houston Center
07:55PM 32.0431 -91.1047 249° West 436 502 36,000  Level Houston Center
07:56PM 32.0067 -91.2403 252° West 433 498 36,000  Level Houston Center
07:57PM 31.9731 -91.3756 254° West 431 496 36,000  Level Houston Center
07:58PM 31.9444 -91.5133 256° West 433 498 36,000  Level Houston Center
07:59PM 31.9150 -91.6525 256° West 438 504 36,000  Level Houston Center
08:00PM 31.8772 -91.8178 255° West 439 505 36,000  Level Houston Center
08:01PM 31.8467 -91.9558 255° West 436 502 36,000  Level Houston Center
08:02PM 31.8133 -92.1025 255° West 436 502 36,000 -60 Level Houston Center
08:04PM 31.7822 -92.2389 255° West 435 501 35,900 -60 Descending Houston Center
08:05PM 31.7497 -92.3758 254° West 437 503 35,900  Level Houston Center
08:06PM 31.7208 -92.5131 256° West 436 502 35,900  Level Houston Center
08:07PM 31.6983 -92.6522 259° West 435 501 35,900  Level Houston Center
08:08PM 31.6756 -92.7922 259° West 437 503 36,000  Climbing Houston Center
08:09PM 31.6492 -92.9586 259° West 435 501 35,900 -60 Descending Houston Center
08:10PM 31.6264 -93.0967 259° West 433 498 35,900  Level Houston Center
08:11PM 31.6108 -93.2372 263° West 436 502 36,000  Climbing Houston Center
08:12PM 31.6019 -93.3903 266° West 431 496 36,000  Level Houston Center
08:13PM 31.5919 -93.5303 265° West 430 495 36,000  Level Houston Center
08:14PM 31.5883 -93.6683 268° West 432 497 36,000 -300 Level Houston Center
08:15PM 31.5847 -93.8092 268° West 430 495 35,500 -780 Descending Houston Center
08:16PM 31.5200 -93.9281 237° Southwest 441 507 34,500 -1,560 Descending Houston Center
08:17PM 31.3756 -93.9914 201° Southwest 457 526 32,400 -2,040 Descending Houston Center
08:18PM 31.2531 -94.0306 195° South 454 522 30,400 -2,040 Descending Houston Center
08:19PM 31.1217 -94.0725 195° South 478 550 28,200 -2,160 Descending Houston Center
08:20PM 30.9936 -94.1133 195° South 476 548 26,000 -2,280 Descending Houston Center
08:21PM 30.8678 -94.1533 195° South 447 514 23,600 -2,280 Descending Houston Center
08:22PM 30.7569 -94.1889 195° South 421 484 21,400 -2,100 Descending Houston Center
08:23PM 30.6506 -94.2219 195° South 402 463 19,400 -2,040 Descending Houston Center
08:24PM 30.5469 -94.2544 195° South 391 450 17,300 -1,980 Descending Houston Center
08:25PM 30.4456 -94.2867 195° South 382 440 15,400 -1,920 Descending Houston Center
08:26PM 30.3572 -94.3433 209° Southwest 381 438 13,400 -1,860 Descending Houston Center
08:27PM 30.2742 -94.4731 233° Southwest 383 441 11,500 -1,260 Descending Houston Center
08:28PM 30.2256 -94.5528 235° Southwest 368 423 10,800 -960 Descending Houston Center
08:29PM 30.1742 -94.6339 234° Southwest 338 389 9,600 -1,320 Descending Houston Center
08:30PM 30.1242 -94.7117 233° Southwest 318 366 8,200 -1,200 Descending Houston Center
08:31PM 30.0644 -94.8022 233° Southwest 289 333 7,100 -600 Descending Houston Center
08:32PM 30.0283 -94.8611 235° Southwest 295 339 7,000 -300 Descending Houston Center
08:33PM 29.9931 -94.9475 245° Southwest 271 312 6,500 -600 Descending Houston Center
08:34PM 29.9925 -95.0189 270° West 226 260 5,900 -1,080 Descending Houston Center
08:35PM 29.9933 -95.0903 271° West 220 253 4,400 -1,440 Descending Houston Center
08:37PM 29.9936 -95.1536 270° West 204 235 2,900 -1,140 Descending Houston Center
08:38PM 29.9939 -95.2086 270° West 180 207 2,100 -840 Descending Houston Center
08:39PM 29.9922 -95.2628 268° West 145 167 1,200 -840 Descending Houston Center
08:39PM 29.9939 -95.3058 273° West 146 168 500 -780 Descending Houston Center